地図

経路データ

SID SEASON NUMBER BASIN SUBBASIN NAME ISO_TIME NATURE LAT LON WMO_WIND WMO_PRES WMO_AGENCY TRACK_TYPE DIST2LAND LANDFALL IFLAG USA_AGENCY USA_ATCF_ID USA_LAT USA_LON USA_RECORD USA_STATUS USA_WIND USA_PRES USA_SSHS USA_R34_NE USA_R34_SE USA_R34_SW USA_R34_NW USA_R50_NE USA_R50_SE USA_R50_SW USA_R50_NW USA_R64_NE USA_R64_SE USA_R64_SW USA_R64_NW USA_POCI USA_ROCI USA_RMW USA_EYE TOKYO_LAT TOKYO_LON TOKYO_GRADE TOKYO_WIND TOKYO_PRES TOKYO_R50_DIR TOKYO_R50_LONG TOKYO_R50_SHORT TOKYO_R30_DIR TOKYO_R30_LONG TOKYO_R30_SHORT TOKYO_LAND CMA_LAT CMA_LON CMA_CAT CMA_WIND CMA_PRES HKO_LAT HKO_LON HKO_CAT HKO_WIND HKO_PRES NEWDELHI_LAT NEWDELHI_LON NEWDELHI_GRADE NEWDELHI_WIND NEWDELHI_PRES NEWDELHI_CI NEWDELHI_DP NEWDELHI_POCI REUNION_LAT REUNION_LON REUNION_TYPE REUNION_WIND REUNION_PRES REUNION_TNUM REUNION_CI REUNION_RMW REUNION_R34_NE REUNION_R34_SE REUNION_R34_SW REUNION_R34_NW REUNION_R50_NE REUNION_R50_SE REUNION_R50_SW REUNION_R50_NW REUNION_R64_NE REUNION_R64_SE REUNION_R64_SW REUNION_R64_NW BOM_LAT BOM_LON BOM_TYPE BOM_WIND BOM_PRES BOM_TNUM BOM_CI BOM_RMW BOM_R34_NE BOM_R34_SE BOM_R34_SW BOM_R34_NW BOM_R50_NE BOM_R50_SE BOM_R50_SW BOM_R50_NW BOM_R64_NE BOM_R64_SE BOM_R64_SW BOM_R64_NW BOM_ROCI BOM_POCI BOM_EYE BOM_POS_METHOD BOM_PRES_METHOD NADI_LAT NADI_LON NADI_CAT NADI_WIND NADI_PRES WELLINGTON_LAT WELLINGTON_LON WELLINGTON_WIND WELLINGTON_PRES DS824_LAT DS824_LON DS824_STAGE DS824_WIND DS824_PRES TD9636_LAT TD9636_LON TD9636_STAGE TD9636_WIND TD9636_PRES TD9635_LAT TD9635_LON TD9635_WIND TD9635_PRES TD9635_ROCI NEUMANN_LAT NEUMANN_LON NEUMANN_CLASS NEUMANN_WIND NEUMANN_PRES MLC_LAT MLC_LON MLC_CLASS MLC_WIND MLC_PRES USA_GUST BOM_GUST BOM_GUST_PER REUNION_GUST REUNION_GUST_PER USA_SEAHGT USA_SEARAD_NE USA_SEARAD_SE USA_SEARAD_SW USA_SEARAD_NW STORM_SPEED STORM_DIR
1945271N06160 1945 66 WP MM KATE 1945-09-28 00:00:00 TS 6.00000 160.000 main 1367 1352 O________OOO__ jtwc_wp WP221945 6.00000 160.000 25 -1 6.00000 160.000 TC 25 6.00000 160.000 1 25 6.00000 160.000 25 1003 120 11 297
1945271N06160 1945 66 WP MM KATE 1945-09-28 03:00:00 TS 6.25028 159.496 main 1360 1343 P________PPP__ WP221945 6.24760 159.500 25 -1 6.24760 159.500 TC 25 6.25833 159.485 1 25 6.24760 159.500 25 1003 150 11 297
1945271N06160 1945 66 WP MM KATE 1945-09-28 06:00:00 TS 6.50329 158.994 main 1345 1333 O________OPO__ jtwc_wp WP221945 6.50000 159.000 25 -1 6.50000 159.000 TC 25 6.51315 158.976 1 25 6.50000 159.000 25 1003 180 11 297
1945271N06160 1945 66 WP MM KATE 1945-09-28 09:00:00 TS 6.75843 158.495 main 1342 1328 P________PPP__ WP221945 6.75745 158.500 25 -1 6.75745 158.500 TC 25 6.76138 158.479 1 25 6.75745 158.500 25 1003 180 11 297
1945271N06160 1945 66 WP MM KATE 1945-09-28 12:00:00 TS 7.00000 158.000 main 1332 1319 O________OOO__ jtwc_wp WP221945 7.00000 158.000 25 -1 7.00000 158.000 TC 25 7.00000 158.000 1 25 7.00000 158.000 25 1003 180 11 294
1945271N06160 1945 66 WP MM KATE 1945-09-28 15:00:00 TS 7.20163 157.510 main 1323 1315 P________PPP__ WP221945 7.19245 157.500 25 -1 7.19245 157.500 TC 25 7.22918 157.540 1 26 7.19245 157.500 25 1003 180 11 293
1945271N06160 1945 66 WP MM KATE 1945-09-28 18:00:00 TS 7.41542 157.018 main 1315 1315 O________OPO__ jtwc_wp WP221945 7.40000 157.000 25 -1 7.40000 157.000 TC 25 7.46170 157.074 1 27 7.40000 157.000 25 1003 180 11 297
1945271N06160 1945 66 WP MM KATE 1945-09-28 21:00:00 TS 7.68069 156.546 main 1320 1315 P________PPP__ WP221945 7.66979 156.537 27 -1 7.66979 156.537 TC 27 7.71340 156.571 1 28 7.66979 156.537 27 1003 210 12 300
1945271N06160 1945 66 WP MM KATE 1945-09-29 00:00:00 TS 8.00000 156.000 main 1326 1321 O________OOO__ jtwc_wp WP221945 8.00000 156.000 30 -1 8.00000 156.000 TC 30 8.00000 156.000 1 30 8.00000 156.000 30 1003 240 14 299
1945271N06160 1945 66 WP MM KATE 1945-09-29 03:00:00 TS 8.37415 155.296 main 1336 1332 P________PPP__ WP221945 8.39255 155.288 30 -1 8.39255 155.288 TC 30 8.31895 155.322 1 30 8.39255 155.288 30 1003 240 17 298
1945271N06160 1945 66 WP MM KATE 1945-09-29 06:00:00 TS 8.76881 154.519 main 1349 1342 O________OPO__ jtwc_wp WP221945 8.80000 154.500 30 -1 8.80000 154.500 TC 30 8.67526 154.574 1 30 8.80000 154.500 30 1003 240 17 296
1945271N06160 1945 66 WP MM KATE 1945-09-29 09:00:00 TS 9.11832 153.765 main 1360 1358 P________PPP__ WP221945 9.13480 153.757 30 -1 9.13480 153.757 TC 30 9.06887 153.790 1 30 9.13480 153.757 30 1003 240 17 296
1945271N06160 1945 66 WP MM KATE 1945-09-29 12:00:00 TS 9.50000 153.000 main 1386 1384 O________OOO__ jtwc_wp WP221945 9.50000 153.000 30 -1 9.50000 153.000 TC 30 9.50000 153.000 1 30 9.50000 153.000 30 1003 240 18 299
1945271N06160 1945 66 WP MM KATE 1945-09-29 15:00:00 TS 9.98434 152.192 main 1430 1429 P________PPP__ WP221945 9.97747 152.193 30 -1 9.97747 152.193 TC 30 10.0050 152.190 1 30 9.97747 152.193 30 1003 240 19 303
1945271N06160 1945 66 WP MM KATE 1945-09-29 18:00:00 TS 10.5095 151.397 main 1479 1479 O________OPO__ jtwc_wp WP221945 10.5000 151.400 30 -1 10.5000 151.400 TC 30 10.5381 151.389 1 30 10.5000 151.400 30 1003 240 19 305
1945271N06160 1945 66 WP MM KATE 1945-09-29 21:00:00 TS 11.0411 150.647 main 1509 1509 P________PPP__ WP221945 11.0374 150.648 30 -1 11.0374 150.648 TC 30 11.0521 150.643 1 30 11.0374 150.648 30 1003 240 17 306
1945271N06160 1945 66 WP MM KATE 1945-09-30 00:00:00 TS 11.5000 150.000 main 1550 1548 O________OOO__ jtwc_wp WP221945 11.5000 150.000 30 -1 11.5000 150.000 TC 30 11.5000 150.000 1 30 11.5000 150.000 30 1003 240 14 304
1945271N06160 1945 66 WP MM KATE 1945-09-30 03:00:00 TS 11.7956 149.496 main 1574 1573 P________PPP__ WP221945 11.7873 149.490 30 -1 11.7873 149.490 TC 30 11.8207 149.516 1 31 11.7873 149.490 30 1002 240 10 301
1945271N06160 1945 66 WP MM KATE 1945-09-30 06:00:00 TS 12.0184 149.109 main 1590 1590 O________OPO__ jtwc_wp WP221945 12.0000 149.100 30 -1 12.0000 149.100 TC 30 12.0735 149.136 1 32 12.0000 149.100 30 1002 240 8 305
1945271N06160 1945 66 WP MM KATE 1945-09-30 09:00:00 TS 12.2654 148.798 main 1620 1619 P________PPP__ WP221945 12.2573 148.792 32 -1 12.2573 148.792 TC 32 12.2897 148.813 1 33 12.2573 148.792 32 1001 270 8 309
1945271N06160 1945 66 WP MM KATE 1945-09-30 12:00:00 TS 12.5000 148.500 main 1640 1639 O________OOO__ jtwc_wp WP221945 12.5000 148.500 35 0 12.5000 148.500 TC 35 12.5000 148.500 2 35 12.5000 148.500 35 1001 300 8 303
1945271N06160 1945 66 WP MM KATE 1945-09-30 15:00:00 TS 12.7048 148.117 main 1659 1659 P________PPP__ WP221945 12.6925 148.107 35 0 12.6925 148.107 TC 35 12.7415 148.145 2 35 12.6925 148.107 35 1000 360 9 299
1945271N06160 1945 66 WP MM KATE 1945-09-30 18:00:00 TS 12.9211 147.722 main 1680 1680 O________OPO__ jtwc_wp WP221945 12.9000 147.700 35 0 12.9000 147.700 TC 35 12.9844 147.787 2 35 12.9000 147.700 35 1000 420 9 304
1945271N06160 1945 66 WP MM KATE 1945-09-30 21:00:00 TS 13.1974 147.376 main 1714 1714 P________PPP__ WP221945 13.1848 147.365 35 0 13.1848 147.365 TC 35 13.2352 147.410 2 35 13.1848 147.365 35 999 360 9 310
1945271N06160 1945 66 WP MM KATE 1945-10-01 00:00:00 TS 13.5000 147.000 main 1747 1747 O________OOO__ jtwc_wp WP221945 13.5000 147.000 35 0 13.5000 147.000 TC 35 13.5000 147.000 2 35 13.5000 147.000 35 999 300 10 306
1945271N06160 1945 66 WP MM KATE 1945-10-01 03:00:00 TS 13.7954 146.526 main 1781 1781 P________PPP__ WP221945 13.8000 146.522 37 0 13.8000 146.522 TC 37 13.7816 146.536 2 37 13.8000 146.522 37 998 270 11 302
1945271N06160 1945 66 WP MM KATE 1945-10-01 06:00:00 TS 14.0944 146.009 main 1816 1816 O________OPO__ jtwc_wp WP221945 14.1000 146.000 40 0 14.1000 146.000 TC 40 14.0775 146.037 2 40 14.1000 146.000 40 997 240 12 301
1945271N06160 1945 66 WP MM KATE 1945-10-01 09:00:00 TS 14.3905 145.505 main 1852 1852 P________PPP__ WP221945 14.3924 145.500 42 0 14.3924 145.500 TC 42 14.3847 145.520 2 42 14.3924 145.500 42 996 240 12 302
1945271N06160 1945 66 WP MM KATE 1945-10-01 12:00:00 TS 14.7000 145.000 main 1890 1890 O________OOO__ jtwc_wp WP221945 14.7000 145.000 45 0 14.7000 145.000 TC 45 14.7000 145.000 2 45 14.7000 145.000 45 995 240 12 304
1945271N06160 1945 66 WP MM KATE 1945-10-01 15:00:00 TS 15.0387 144.503 main 1929 1929 P________PPP__ WP221945 15.0499 144.500 45 0 15.0499 144.500 TC 45 15.0051 144.511 2 46 15.0499 144.500 45 994 210 12 305
1945271N06160 1945 66 WP MM KATE 1945-10-01 18:00:00 TS 15.3798 144.005 main 1981 1981 O________OPO__ jtwc_wp WP221945 15.4000 144.000 45 0 15.4000 144.000 TC 45 15.3193 144.021 2 47 15.4000 144.000 45 994 180 12 304
1945271N06160 1945 66 WP MM KATE 1945-10-01 21:00:00 TS 15.6870 143.516 main 1981 1934 P________PPP__ WP221945 15.6998 143.515 47 0 15.6998 143.515 TC 47 15.6488 143.521 2 48 15.6998 143.515 47 993 210 12 303
1945271N06160 1945 66 WP MM KATE 1945-10-02 00:00:00 TS 16.0000 143.000 main 1934 1878 O________OOO__ jtwc_wp WP221945 16.0000 143.000 50 0 16.0000 143.000 TC 50 16.0000 143.000 2 50 16.0000 143.000 50 992 240 12 302
1945271N06160 1945 66 WP MM KATE 1945-10-02 03:00:00 TS 16.3372 142.416 main 1878 1825 P________PPP__ WP221945 16.3275 142.407 50 0 16.3275 142.407 TC 50 16.3662 142.442 2 51 16.3275 142.407 50 991 270 13 302
1945271N06160 1945 66 WP MM KATE 1945-10-02 06:00:00 TS 16.7137 141.816 main 1825 1785 O________OPO__ jtwc_wp WP221945 16.7000 141.800 50 0 16.7000 141.800 TC 50 16.7549 141.864 2 52 16.7000 141.800 50 991 300 14 306
1945271N06160 1945 66 WP MM KATE 1945-10-02 09:00:00 TS 17.1425 141.263 main 1785 1741 P________PPP__ WP221945 17.1347 141.257 52 0 17.1347 141.257 TC 52 17.1661 141.279 2 53 17.1347 141.257 52 990 270 14 310
1945271N06160 1945 66 WP MM KATE 1945-10-02 12:00:00 TS 17.6000 140.700 main 1741 1696 O________OOO__ jtwc_wp WP221945 17.6000 140.700 55 0 17.6000 140.700 TC 55 17.6000 140.700 2 55 17.6000 140.700 55 989 240 15 308
1945271N06160 1945 66 WP MM KATE 1945-10-02 15:00:00 TS 18.0372 140.060 main 1696 1653 P________PPP__ WP221945 18.0427 140.035 55 0 18.0427 140.035 TC 55 18.0206 140.133 2 55 18.0427 140.035 55 988 240 15 307
1945271N06160 1945 66 WP MM KATE 1945-10-02 18:00:00 TS 18.4918 139.444 main 1648 1588 O________OPO__ jtwc_wp WP221945 18.5000 139.400 55 0 18.5000 139.400 TC 55 18.4671 139.576 2 55 18.5000 139.400 55 988 240 14 312
1945271N06160 1945 66 WP MM KATE 1945-10-02 21:00:00 TS 18.9659 138.964 main 1578 1503 P________PPP__ WP221945 18.9695 138.942 55 0 18.9695 138.942 TC 55 18.9550 139.030 2 55 18.9695 138.942 55 988 240 14 318
1945271N06160 1945 66 WP MM KATE 1945-10-03 00:00:00 TS 19.5000 138.500 main 1503 1414 O________OOO__ jtwc_wp WP221945 19.5000 138.500 55 0 19.5000 138.500 TC 55 19.5000 138.500 2 55 19.5000 138.500 55 988 240 15 319
1945271N06160 1945 66 WP MM KATE 1945-10-03 03:00:00 TS 20.1085 137.906 main 1414 1330 P________PPP__ WP221945 20.1203 137.893 55 0 20.1203 137.893 TC 55 20.0731 137.945 2 55 20.1203 137.893 55 987 210 17 319
1945271N06160 1945 66 WP MM KATE 1945-10-03 06:00:00 TS 20.7770 137.327 main 1315 1237 O________OPO__ jtwc_wp WP221945 20.8000 137.300 55 0 20.8000 137.300 TC 55 20.7081 137.410 2 55 20.8000 137.300 55 987 180 17 324
1945271N06160 1945 66 WP MM KATE 1945-10-03 09:00:00 TS 21.4501 136.882 main 1227 1138 P________PPP__ WP221945 21.4622 136.869 55 0 21.4622 136.869 TC 55 21.4139 136.920 2 55 21.4622 136.869 55 986 210 16 332
1945271N06160 1945 66 WP MM KATE 1945-10-03 12:00:00 TS 22.2000 136.500 main 1138 1040 O________OOO__ jtwc_wp WP221945 22.2000 136.500 55 0 22.2000 136.500 TC 55 22.2000 136.500 2 55 22.2000 136.500 55 986 240 18 335
1945271N06160 1945 66 WP MM KATE 1945-10-03 15:00:00 TS 23.0570 136.073 main 1030 933 P________PPP__ WP221945 23.0552 136.056 55 0 23.0552 136.056 TC 55 23.0624 136.126 2 56 23.0552 136.056 55 985 210 19 339
1945271N06160 1945 66 WP MM KATE 1945-10-03 18:00:00 TS 24.0005 135.732 main 923 833 O________OPO__ jtwc_wp WP221945 24.0000 135.700 55 0 24.0000 135.700 TC 55 24.0022 135.829 2 57 24.0000 135.700 55 985 180 20 346
1945271N06160 1945 66 WP MM KATE 1945-10-03 21:00:00 TS 24.9863 135.564 main 824 732 P________PPP__ WP221945 24.9848 135.547 57 0 24.9848 135.547 TC 57 24.9908 135.618 2 58 24.9848 135.547 57 984 180 20 354
1945271N06160 1945 66 WP MM KATE 1945-10-04 00:00:00 TS 26.0000 135.500 main 722 634 O________OOO__ jtwc_wp WP221945 26.0000 135.500 60 0 26.0000 135.500 TC 60 26.0000 135.500 2 60 26.0000 135.500 60 984 180 20 356
1945271N06160 1945 66 WP MM KATE 1945-10-04 03:00:00 TS 26.9962 135.415 main 625 549 P________PPP__ WP221945 26.9999 135.406 60 0 26.9999 135.406 TC 60 26.9851 135.444 2 60 26.9999 135.406 60 983 180 20 358
1945271N06160 1945 66 WP MM KATE 1945-10-04 06:00:00 TS 27.9961 135.421 main 541 489 O________OPO__ jtwc_wp WP221945 28.0000 135.400 60 0 28.0000 135.400 TC 60 27.9844 135.485 2 60 28.0000 135.400 60 982 180 20 4
1945271N06160 1945 66 WP MM KATE 1945-10-04 09:00:00 TS 28.9979 135.573 main 481 390 P________PPP__ WP221945 29.0001 135.562 60 0 29.0001 135.562 TC 60 28.9915 135.608 2 60 29.0001 135.562 60 981 210 20 9
1945271N06160 1945 66 WP MM KATE 1945-10-04 12:00:00 TS 30.0000 135.800 main 379 279 O________OOO__ jtwc_wp WP221945 30.0000 135.800 60 0 30.0000 135.800 TC 60 30.0000 135.800 2 60 30.0000 135.800 60 981 240 20 10
1945271N06160 1945 66 WP MM KATE 1945-10-04 15:00:00 TS 31.0010 135.990 main 268 171 P________PPP__ WP221945 30.9998 135.971 60 0 30.9998 135.971 TC 60 31.0048 136.046 2 60 30.9998 135.971 60 980 240 20 10
1945271N06160 1945 66 WP MM KATE 1945-10-04 18:00:00 TS 32.0012 136.227 main 160 78 O________OPO__ jtwc_wp WP221945 32.0000 136.200 60 0 32.0000 136.200 TC 60 32.0058 136.336 2 60 32.0000 136.200 60 980 240 21 13
1945271N06160 1945 66 WP MM KATE 1945-10-04 21:00:00 TS 33.0132 136.557 main 85 45 P________PPP__ WP221945 33.0148 136.541 60 0 33.0148 136.541 TC 60 33.0040 136.658 2 60 33.0148 136.541 60 980 270 21 18
1945271N06160 1945 66 WP MM KATE 1945-10-05 00:00:00 TS 34.0000 137.000 main 34 0 O________OOO__ jtwc_wp WP221945 34.0000 137.000 60 0 34.0000 137.000 TC 60 34.0000 137.000 2 60 34.0000 137.000 60 980 300 22 18
1945271N06160 1945 66 WP MM KATE 1945-10-05 03:00:00 TS 35.1279 137.407 main 0 0 P________P_P__ WP221945 35.1797 137.367 55 0 35.1797 137.367 TC 55 2 34.9208 137.567 55 982 270 21 29
1945271N06160 1945 66 WP MM KATE 1945-10-05 06:00:00 TS 35.8000 138.200 main 0 0 O________O_O__ jtwc_wp WP221945 35.8000 138.200 50 0 35.8000 138.200 TC 50 2 35.8000 138.200 50 985 240 21 95
1945271N06160 1945 66 WP MM KATE 1945-10-05 09:00:00 TS 34.9650 139.955 main 0 0 P________P____ WP221945 34.9650 139.955 42 0 34.9650 139.955 TC 42 2 36 120
1945271N06160 1945 66 WP MM KATE 1945-10-05 12:00:00 TS 34.0000 142.000 main 198 198 O________O____ jtwc_wp WP221945 34.0000 142.000 35 0 34.0000 142.000 TC 35 32 103
1945271N06160 1945 66 WP MM KATE 1945-10-05 15:00:00 TS 34.2468 143.705 main 304 304 P________P____ WP221945 34.2468 143.705 32 -1 34.2468 143.705 TC 32 31 71
1945271N06160 1945 66 WP MM KATE 1945-10-05 18:00:00 TS 35.0000 145.500 main 423 423 O________O____ jtwc_wp WP221945 35.0000 145.500 30 -1 35.0000 145.500 TC 30 35 64
1945271N06160 1945 66 WP MM KATE 1945-10-05 21:00:00 TS 35.7805 147.558 main 603 603 P________P____ WP221945 35.7805 147.558 27 -1 35.7805 147.558 TC 27 38 67
1945271N06160 1945 66 WP MM KATE 1945-10-06 00:00:00 TS 36.5000 149.800 main 750 O________O____ jtwc_wp WP221945 36.5000 149.800 25 -1 36.5000 149.800 TC 25 39 68

デジタル台風データ・検索

IBTrACS Databaseについて

本データベースは、米国NOAAが公開する1842年以降の世界の熱帯低気圧のベストトラックデータアーカイブInternational Best Track Archive for Climate Stewardship (IBTrACS)を、ウェブで閲覧しやすい形式に変換したものです。

最終更新日:2021-12-03